createdAt,value
2019-03-06T00:00:28.557Z,21.10
2019-03-06T00:03:00.542Z,25.23
2019-03-06T00:05:31.016Z,19.90
2019-03-06T00:08:01.367Z,20.70
2019-03-06T00:10:32.050Z,21.80
2019-03-06T00:13:02.460Z,21.50
2019-03-06T00:15:44.326Z,20.03
2019-03-06T00:18:14.676Z,18.67
2019-03-06T00:20:45.205Z,19.97
2019-03-06T00:23:15.564Z,19.40
2019-03-06T00:25:46.400Z,21.93
2019-03-06T00:28:17.063Z,19.80
2019-03-06T00:30:47.458Z,25.17
2019-03-06T00:33:17.806Z,21.87
2019-03-06T00:35:49.953Z,22.07
2019-03-06T00:38:20.317Z,24.60
2019-03-06T00:41:08.601Z,23.13
2019-03-06T00:43:38.948Z,21.07
2019-03-06T00:46:09.602Z,21.63
2019-03-06T00:48:40.074Z,23.90
2019-03-06T00:51:10.423Z,20.10
2019-03-06T00:53:40.789Z,20.80
2019-03-06T00:56:11.169Z,21.77
2019-03-06T00:58:41.808Z,20.33
2019-03-06T01:01:12.328Z,18.17
2019-03-06T01:03:42.701Z,19.87
2019-03-06T01:06:13.181Z,20.43
2019-03-06T01:08:43.553Z,21.87
2019-03-06T01:11:13.952Z,19.90
2019-03-06T01:13:44.305Z,17.13
2019-03-06T01:16:14.803Z,17.33
2019-03-06T01:18:45.168Z,18.57
2019-03-06T01:21:15.721Z,18.03
2019-03-06T01:23:46.113Z,17.03
2019-03-06T01:26:16.473Z,15.10
2019-03-06T01:28:46.872Z,20.87
2019-03-06T01:31:17.227Z,15.23
2019-03-06T01:34:12.415Z,18.93
2019-03-06T01:37:06.994Z,18.67
2019-03-06T01:39:59.642Z,14.60
2019-03-06T01:42:43.953Z,19.40
2019-03-06T01:45:15.422Z,20.40
2019-03-06T01:47:45.771Z,19.10
2019-03-06T01:50:16.561Z,17.70
2019-03-06T01:52:47.237Z,19.40
2019-03-06T01:55:17.662Z,19.87
2019-03-06T01:57:48.026Z,20.87
2019-03-06T02:00:19.434Z,19.10
2019-03-06T02:02:50.094Z,22.07
2019-03-06T02:05:20.525Z,16.10
2019-03-06T02:07:50.955Z,20.13
2019-03-06T02:10:21.329Z,18.80
2019-03-06T02:12:51.677Z,18.13
2019-03-06T02:15:23.525Z,18.57
2019-03-06T02:17:53.863Z,25.23
2019-03-06T02:20:24.597Z,18.10
2019-03-06T02:22:54.948Z,22.70
2019-03-06T02:25:25.325Z,20.03
2019-03-06T02:27:55.661Z,19.13
2019-03-06T02:30:26.044Z,17.10
2019-03-06T02:32:56.378Z,27.80
2019-03-06T02:35:26.741Z,24.50
2019-03-06T02:37:57.622Z,23.80
2019-03-06T02:40:29.034Z,26.43
2019-03-06T02:42:59.408Z,23.83
2019-03-06T02:45:30.093Z,24.07
2019-03-06T02:48:00.453Z,22.77
2019-03-06T02:50:30.793Z,28.83
2019-03-06T02:53:01.246Z,23.77
2019-03-06T02:55:31.589Z,22.73
2019-03-06T02:58:39.465Z,24.33
2019-03-06T03:01:24.727Z,26.73
2019-03-06T03:04:16.818Z,27.27
2019-03-06T03:07:06.088Z,26.83
2019-03-06T03:09:36.543Z,26.20
2019-03-06T03:12:06.881Z,25.00
2019-03-06T03:14:37.270Z,24.67
2019-03-06T03:17:07.773Z,30.33
2019-03-06T03:19:38.121Z,28.77
2019-03-06T03:22:09.382Z,28.33
2019-03-06T03:24:39.794Z,25.60
2019-03-06T03:27:10.137Z,28.83
2019-03-06T03:29:40.512Z,30.63
2019-03-06T03:32:10.854Z,26.67
2019-03-06T03:34:41.259Z,29.97
2019-03-06T03:37:11.642Z,30.33
2019-03-06T03:39:41.977Z,29.07
2019-03-06T03:42:12.314Z,28.23
2019-03-06T03:44:42.801Z,39.17
2019-03-06T03:47:13.137Z,31.13
2019-03-06T03:49:43.514Z,30.27
2019-03-06T03:52:13.896Z,28.77
2019-03-06T03:54:44.237Z,37.37
2019-03-06T03:57:14.869Z,33.00
2019-03-06T03:59:45.341Z,35.87
2019-03-06T04:02:15.696Z,35.10
2019-03-06T04:04:46.423Z,30.83
2019-03-06T04:07:17.102Z,30.20
2019-03-06T04:09:47.449Z,33.27
2019-03-06T04:12:17.809Z,32.83
2019-03-06T04:14:48.160Z,31.63
2019-03-06T04:17:18.553Z,28.23
2019-03-06T04:19:48.907Z,36.43
2019-03-06T04:22:19.311Z,35.30
2019-03-06T04:24:49.719Z,31.33
2019-03-06T04:27:20.186Z,31.40
2019-03-06T04:29:50.521Z,32.10
2019-03-06T04:32:20.890Z,31.73
2019-03-06T04:34:51.238Z,31.30
2019-03-06T04:37:21.610Z,28.60
2019-03-06T04:39:51.973Z,32.63
2019-03-06T04:42:22.342Z,34.23
2019-03-06T04:44:52.801Z,38.50
2019-03-06T04:47:23.181Z,30.73
2019-03-06T04:49:53.536Z,35.73
2019-03-06T04:52:24.265Z,31.17
2019-03-06T04:54:54.621Z,32.87
2019-03-06T04:57:25.007Z,38.83
2019-03-06T04:59:55.356Z,30.93
2019-03-06T05:02:25.714Z,36.17
2019-03-06T05:04:56.121Z,36.57
2019-03-06T05:07:26.657Z,37.83
2019-03-06T05:09:57.117Z,36.37
2019-03-06T05:12:27.453Z,33.40
2019-03-06T05:14:58.891Z,33.23
2019-03-06T05:17:48.210Z,37.37
2019-03-06T05:20:18.635Z,34.60
2019-03-06T05:22:48.997Z,37.67
2019-03-06T05:25:31.288Z,34.20
2019-03-06T05:28:01.621Z,34.53
2019-03-06T05:30:32.081Z,32.53
2019-03-06T05:33:02.496Z,37.17
2019-03-06T05:36:04.521Z,34.53
2019-03-06T05:38:45.706Z,34.70
2019-03-06T05:41:16.493Z,36.20
2019-03-06T05:43:46.842Z,40.90
2019-03-06T05:46:17.309Z,36.77
2019-03-06T05:48:48.645Z,37.00
2019-03-06T05:51:18.985Z,36.87
2019-03-06T05:53:49.360Z,44.47
2019-03-06T05:56:19.702Z,38.27
2019-03-06T05:58:50.034Z,38.33
2019-03-06T06:01:20.399Z,40.17
2019-03-06T06:03:50.933Z,50.17
2019-03-06T06:06:21.349Z,47.60
2019-03-06T06:08:51.809Z,41.70
2019-03-06T06:11:22.145Z,43.70
2019-03-06T06:13:52.489Z,45.77
2019-03-06T06:16:22.850Z,43.33
2019-03-06T06:18:53.177Z,43.50
2019-03-06T06:21:41.256Z,40.87
2019-03-06T06:24:14.568Z,44.17
2019-03-06T06:26:44.927Z,46.70
2019-03-06T06:29:15.273Z,53.43
2019-03-06T06:31:45.667Z,44.90
2019-03-06T06:34:16.317Z,42.07
2019-03-06T06:36:46.773Z,44.57
2019-03-06T06:39:17.117Z,43.97
2019-03-06T06:41:47.522Z,46.23
2019-03-06T06:44:17.883Z,45.13
2019-03-06T06:46:48.334Z,39.60
2019-03-06T06:49:18.666Z,39.77
2019-03-06T06:52:17.989Z,32.53
2019-03-06T06:54:57.209Z,28.77
2019-03-06T06:58:16.405Z,29.30
2019-03-06T07:01:16.897Z,26.80
2019-03-06T07:04:16.118Z,26.23
2019-03-06T07:07:00.233Z,24.07
2019-03-06T07:10:05.033Z,24.63
2019-03-06T07:12:43.473Z,26.13
2019-03-06T07:15:24.958Z,24.57
2019-03-06T07:18:13.301Z,24.37
2019-03-06T07:21:05.277Z,23.53
2019-03-06T07:23:53.397Z,24.83
2019-03-06T07:26:37.606Z,24.57
2019-03-06T07:29:23.017Z,24.70
2019-03-06T07:32:09.250Z,29.67
2019-03-06T07:34:48.966Z,25.93
2019-03-06T07:37:35.598Z,27.40
2019-03-06T07:40:12.433Z,29.77
2019-03-06T07:42:48.530Z,24.30
2019-03-06T07:46:02.298Z,23.60
2019-03-06T07:49:11.957Z,20.93
2019-03-06T07:52:07.218Z,26.30
2019-03-06T07:54:46.790Z,26.40
2019-03-06T07:57:34.066Z,21.40
2019-03-06T08:00:08.337Z,23.37
2019-03-06T08:03:01.907Z,24.10
2019-03-06T08:05:32.311Z,24.47
2019-03-06T08:08:03.750Z,23.27
2019-03-06T08:10:35.738Z,21.20
2019-03-06T08:13:14.429Z,23.67
2019-03-06T08:15:50.025Z,19.77
2019-03-06T08:18:51.546Z,23.47
2019-03-06T08:21:59.009Z,18.87
2019-03-06T08:24:46.858Z,19.23
2019-03-06T08:27:17.274Z,18.27
2019-03-06T08:29:47.617Z,17.47
2019-03-06T08:32:34.977Z,19.13
2019-03-06T08:35:06.431Z,16.10
2019-03-06T08:37:48.190Z,17.67
2019-03-06T08:40:18.528Z,16.43
2019-03-06T08:42:48.914Z,13.20
2019-03-06T08:45:21.402Z,16.27
2019-03-06T08:48:06.601Z,14.50
2019-03-06T08:50:52.274Z,13.33
2019-03-06T08:53:40.618Z,20.17
2019-03-06T08:56:48.425Z,14.43
2019-03-06T08:59:27.087Z,14.60
2019-03-06T09:02:23.557Z,12.90
2019-03-06T09:05:22.293Z,13.70
2019-03-06T09:08:01.925Z,13.40
2019-03-06T09:10:41.137Z,14.87
2019-03-06T09:13:20.285Z,11.17
2019-03-06T09:16:08.613Z,12.70
2019-03-06T09:18:55.649Z,11.90
2019-03-06T09:21:39.445Z,11.17
2019-03-06T09:24:27.655Z,10.67
2019-03-06T09:27:10.782Z,11.20
2019-03-06T09:29:47.450Z,12.53
2019-03-06T09:32:36.789Z,12.27
2019-03-06T09:35:25.003Z,12.13
2019-03-06T09:38:20.549Z,11.10
2019-03-06T09:41:16.125Z,11.57
2019-03-06T09:44:04.128Z,10.57
2019-03-06T09:46:56.305Z,10.20
2019-03-06T09:49:48.529Z,13.57
2019-03-06T09:52:41.013Z,9.63
2019-03-06T09:55:39.497Z,11.23
2019-03-06T09:58:28.761Z,11.63
2019-03-06T10:01:33.153Z,10.47
2019-03-06T10:04:28.724Z,13.93
2019-03-06T10:07:17.183Z,10.23
2019-03-06T10:10:06.468Z,13.43
2019-03-06T10:12:59.141Z,9.20
2019-03-06T10:15:39.679Z,7.77
2019-03-06T10:18:14.125Z,8.30
2019-03-06T10:20:44.465Z,10.90
2019-03-06T10:23:14.853Z,8.00
2019-03-06T10:25:45.195Z,8.47
2019-03-06T10:28:15.857Z,7.27
2019-03-06T10:30:46.188Z,8.37
2019-03-06T10:33:16.569Z,7.73
2019-03-06T10:35:46.932Z,11.57
2019-03-06T10:38:17.344Z,9.27
2019-03-06T10:40:47.759Z,14.20
2019-03-06T10:43:18.481Z,11.27
2019-03-06T10:45:48.823Z,9.43
2019-03-06T10:48:19.278Z,8.50
2019-03-06T10:50:49.635Z,6.43
2019-03-06T10:53:20.073Z,8.90
2019-03-06T10:55:50.422Z,9.17
2019-03-06T10:58:20.793Z,10.90
2019-03-06T11:00:53.534Z,8.43
2019-03-06T11:03:34.927Z,10.43
2019-03-06T11:06:05.833Z,10.20
2019-03-06T11:08:36.282Z,10.83
2019-03-06T11:11:07.785Z,8.33
2019-03-06T11:13:39.175Z,8.83
2019-03-06T11:16:10.789Z,9.33
2019-03-06T11:18:42.434Z,6.07
2019-03-06T11:21:12.769Z,9.70
2019-03-06T11:23:43.145Z,8.80
2019-03-06T11:26:13.587Z,5.53
2019-03-06T11:28:44.093Z,6.93
2019-03-06T11:31:14.934Z,10.00
2019-03-06T11:33:45.828Z,9.77
2019-03-06T11:36:16.669Z,4.43
2019-03-06T11:38:47.169Z,7.47
2019-03-06T11:41:17.597Z,7.50
2019-03-06T11:43:47.981Z,8.90
2019-03-06T11:46:20.446Z,8.13
2019-03-06T11:48:50.917Z,7.70
2019-03-06T11:51:21.285Z,7.13
2019-03-06T11:53:51.756Z,8.20
2019-03-06T11:56:22.133Z,6.93
2019-03-06T11:58:53.020Z,5.80
2019-03-06T12:01:24.976Z,7.30
2019-03-06T12:03:55.976Z,5.50
2019-03-06T12:06:26.311Z,7.07
2019-03-06T12:08:56.721Z,6.10
2019-03-06T12:11:27.901Z,7.10
2019-03-06T12:13:58.249Z,8.27
2019-03-06T12:16:28.634Z,6.20
2019-03-06T12:18:58.994Z,5.27
2019-03-06T12:21:29.793Z,7.20
2019-03-06T12:24:01.214Z,6.03
2019-03-06T12:26:31.847Z,7.43
2019-03-06T12:29:02.189Z,5.40
2019-03-06T12:31:32.586Z,7.30
2019-03-06T12:34:02.950Z,7.20
2019-03-06T12:36:33.313Z,6.63
2019-03-06T12:39:03.930Z,5.50
2019-03-06T12:41:34.541Z,9.57
2019-03-06T12:44:10.315Z,8.53
2019-03-06T12:46:37.437Z,5.43
2019-03-06T12:49:12.514Z,8.90
2019-03-06T12:51:42.902Z,7.87
2019-03-06T12:54:13.303Z,7.87
2019-03-06T12:56:43.654Z,7.20
2019-03-06T12:59:14.034Z,5.40
2019-03-06T13:01:44.407Z,6.03
2019-03-06T13:04:14.804Z,5.70
2019-03-06T13:06:45.196Z,6.57
2019-03-06T13:09:18.551Z,6.20
2019-03-06T13:11:49.081Z,5.53
2019-03-06T13:14:19.580Z,6.47
2019-03-06T13:16:49.981Z,9.37
2019-03-06T13:19:20.391Z,6.10
2019-03-06T13:21:50.753Z,4.53
2019-03-06T13:24:21.115Z,5.00
2019-03-06T13:26:51.480Z,4.70
2019-03-06T13:29:22.074Z,6.43
2019-03-06T13:31:52.413Z,11.30
2019-03-06T13:34:50.371Z,4.30
2019-03-06T13:37:13.689Z,4.73
2019-03-06T13:39:45.549Z,3.67
2019-03-06T13:42:15.901Z,5.20
2019-03-06T13:44:46.275Z,3.57
2019-03-06T13:47:16.629Z,4.97
2019-03-06T13:49:47.094Z,4.40
2019-03-06T13:52:17.537Z,5.07
2019-03-06T13:54:49.342Z,4.90
2019-03-06T13:57:19.785Z,5.50
2019-03-06T13:59:50.164Z,5.00
2019-03-06T14:02:20.861Z,6.83
2019-03-06T14:04:54.562Z,5.27
2019-03-06T14:07:25.202Z,3.00
2019-03-06T14:09:55.573Z,4.80
2019-03-06T14:12:25.963Z,4.73
2019-03-06T14:14:56.425Z,4.00
2019-03-06T14:17:27.077Z,5.63
2019-03-06T14:19:57.557Z,4.93
2019-03-06T14:22:28.038Z,2.57
2019-03-06T14:24:58.493Z,5.07
2019-03-06T14:27:28.830Z,5.17
2019-03-06T14:29:59.281Z,5.67
2019-03-06T14:32:29.633Z,4.43
2019-03-06T14:35:00.021Z,4.93
2019-03-06T14:37:31.156Z,4.57
2019-03-06T14:40:09.373Z,3.93
2019-03-06T14:42:33.863Z,3.87
2019-03-06T14:45:04.589Z,3.07
2019-03-06T14:47:34.917Z,4.27
2019-03-06T14:50:06.081Z,4.63
2019-03-06T14:52:36.429Z,6.43
2019-03-06T14:55:07.802Z,5.07
2019-03-06T14:57:38.356Z,7.47
2019-03-06T15:00:11.145Z,5.53
2019-03-06T15:02:41.648Z,4.87
2019-03-06T15:05:12.034Z,6.50
2019-03-06T15:07:42.390Z,5.33
2019-03-06T15:10:13.693Z,7.17
2019-03-06T15:12:44.032Z,6.17
2019-03-06T15:15:15.238Z,8.10
2019-03-06T15:17:45.583Z,8.90
2019-03-06T15:20:17.882Z,6.33
2019-03-06T15:22:49.661Z,4.70
2019-03-06T15:25:21.392Z,7.13
2019-03-06T15:27:51.729Z,8.13
2019-03-06T15:30:22.243Z,6.13
2019-03-06T15:32:52.673Z,8.77
2019-03-06T15:35:23.791Z,9.40
2019-03-06T15:37:54.137Z,8.30
2019-03-06T15:40:26.410Z,5.03
2019-03-06T15:42:56.845Z,7.93
2019-03-06T15:45:29.699Z,7.37
2019-03-06T15:48:00.690Z,7.93
2019-03-06T15:50:31.200Z,7.43
2019-03-06T15:53:04.023Z,6.10
2019-03-06T15:55:34.585Z,7.93
2019-03-06T15:58:05.037Z,6.67
2019-03-06T16:00:45.422Z,5.50
2019-03-06T16:03:09.201Z,7.87
2019-03-06T16:05:39.893Z,5.57
2019-03-06T16:08:10.557Z,4.87
2019-03-06T16:10:41.770Z,7.53
2019-03-06T16:13:13.173Z,7.50
2019-03-06T16:15:43.666Z,8.00
2019-03-06T16:18:14.020Z,7.47
2019-03-06T16:20:44.410Z,5.37
2019-03-06T16:23:16.160Z,7.00
2019-03-06T16:25:46.593Z,9.97
2019-03-06T16:28:17.316Z,8.03
2019-03-06T16:30:47.890Z,8.93
2019-03-06T16:33:18.446Z,6.10
2019-03-06T16:35:48.849Z,9.27
2019-03-06T16:38:19.525Z,7.40
2019-03-06T16:40:50.049Z,8.33
2019-03-06T16:43:21.558Z,6.50
2019-03-06T16:45:51.925Z,7.47
2019-03-06T16:48:23.366Z,10.77
2019-03-06T16:50:54.018Z,10.63
2019-03-06T16:53:24.452Z,9.43
2019-03-06T16:55:54.941Z,9.83
2019-03-06T16:58:25.622Z,12.00
2019-03-06T17:00:56.215Z,11.47
2019-03-06T17:03:26.701Z,10.43
2019-03-06T17:05:57.104Z,9.97
2019-03-06T17:08:27.573Z,8.17
2019-03-06T17:10:58.049Z,9.20
2019-03-06T17:13:28.806Z,10.57
2019-03-06T17:16:00.241Z,9.03
2019-03-06T17:18:30.573Z,8.70
2019-03-06T17:21:00.949Z,10.33
2019-03-06T17:23:31.351Z,9.27
2019-03-06T17:26:01.725Z,12.87
2019-03-06T17:28:32.386Z,8.87
2019-03-06T17:31:03.136Z,9.60
2019-03-06T17:33:33.517Z,10.80
2019-03-06T17:36:03.853Z,9.00
2019-03-06T17:38:34.226Z,11.73
2019-03-06T17:41:04.557Z,10.60
2019-03-06T17:43:35.345Z,9.77
2019-03-06T17:46:05.894Z,9.80
2019-03-06T17:48:37.245Z,12.87
2019-03-06T17:51:07.718Z,14.70
2019-03-06T17:53:38.125Z,11.00
2019-03-06T17:56:08.485Z,7.93
2019-03-06T17:58:38.884Z,13.30
2019-03-06T18:01:16.715Z,10.10
2019-03-06T18:04:12.000Z,10.90
2019-03-06T18:06:42.377Z,13.70
2019-03-06T18:09:13.367Z,12.13
2019-03-06T18:11:43.777Z,10.03
2019-03-06T18:14:14.372Z,9.37
2019-03-06T18:16:44.734Z,9.43
2019-03-06T18:19:15.329Z,10.87
2019-03-06T18:21:45.690Z,10.73
2019-03-06T18:24:16.448Z,10.10
2019-03-06T18:26:47.128Z,11.20
2019-03-06T18:29:18.198Z,11.10
2019-03-06T18:31:48.537Z,9.23
2019-03-06T18:34:18.884Z,8.97
2019-03-06T18:36:49.237Z,9.47
2019-03-06T18:39:38.653Z,10.83
2019-03-06T18:42:09.075Z,8.57
2019-03-06T18:44:39.870Z,9.87
2019-03-06T18:47:10.237Z,13.40
2019-03-06T18:49:40.625Z,11.73
2019-03-06T18:52:11.009Z,9.90
2019-03-06T18:54:41.355Z,10.83
2019-03-06T18:57:13.352Z,9.80
2019-03-06T18:59:43.901Z,9.80
2019-03-06T19:02:14.637Z,13.47
2019-03-06T19:04:45.005Z,6.50
2019-03-06T19:07:15.418Z,9.63
2019-03-06T19:09:45.857Z,9.97
2019-03-06T19:12:17.676Z,8.43
2019-03-06T19:14:48.029Z,8.77
2019-03-06T19:17:20.203Z,7.60
2019-03-06T19:19:50.457Z,12.50
2019-03-06T19:22:20.860Z,9.90
2019-03-06T19:24:51.273Z,9.13
2019-03-06T19:27:21.649Z,8.67
2019-03-06T19:29:52.033Z,8.03
2019-03-06T19:32:22.674Z,7.90
2019-03-06T19:34:53.037Z,8.47
2019-03-06T19:37:23.393Z,9.80
2019-03-06T19:40:05.361Z,8.77
2019-03-06T19:42:36.657Z,7.80
2019-03-06T19:45:07.382Z,9.73
2019-03-06T19:47:37.758Z,11.93
2019-03-06T19:50:10.953Z,9.80
2019-03-06T19:52:41.314Z,10.43
2019-03-06T19:55:12.037Z,10.37
2019-03-06T19:58:02.698Z,8.30
2019-03-06T20:00:34.021Z,8.13
2019-03-06T20:03:04.833Z,7.10
2019-03-06T20:05:36.184Z,6.97
2019-03-06T20:08:13.558Z,7.17
2019-03-06T20:10:43.920Z,7.60
2019-03-06T20:13:14.329Z,7.63
2019-03-06T20:15:44.704Z,5.87
2019-03-06T20:18:15.429Z,11.80
2019-03-06T20:20:45.973Z,6.33
2019-03-06T20:23:16.365Z,12.17
2019-03-06T20:25:46.717Z,12.77
2019-03-06T20:28:17.510Z,8.23
2019-03-06T20:30:47.848Z,7.23
2019-03-06T20:33:18.413Z,7.40
2019-03-06T20:35:48.765Z,9.87
2019-03-06T20:38:19.228Z,8.70
2019-03-06T20:40:49.583Z,7.27
2019-03-06T20:43:20.693Z,10.33
2019-03-06T20:45:51.993Z,7.53
2019-03-06T20:48:22.869Z,8.80
2019-03-06T20:50:53.240Z,8.40
2019-03-06T20:53:23.673Z,7.93
2019-03-06T20:55:54.050Z,8.47
2019-03-06T20:58:25.485Z,6.60
2019-03-06T21:00:55.842Z,7.80
2019-03-06T21:03:26.532Z,8.17
2019-03-06T21:05:56.894Z,7.63
2019-03-06T21:08:46.314Z,6.83
2019-03-06T21:11:16.653Z,6.90
2019-03-06T21:13:47.028Z,8.37
2019-03-06T21:16:17.369Z,5.73
2019-03-06T21:18:47.750Z,10.20
2019-03-06T21:21:18.121Z,5.93
2019-03-06T21:23:48.473Z,8.87
2019-03-06T21:26:18.974Z,8.73
2019-03-06T21:28:49.372Z,6.90
2019-03-06T21:31:20.047Z,6.87
2019-03-06T21:33:50.409Z,11.10
2019-03-06T21:36:22.898Z,8.17
2019-03-06T21:38:53.262Z,6.63
2019-03-06T21:41:23.650Z,8.63
2019-03-06T21:43:54.075Z,7.90
2019-03-06T21:46:24.501Z,6.43
2019-03-06T21:48:54.866Z,6.17
2019-03-06T21:51:25.365Z,7.83
2019-03-06T21:53:55.695Z,5.97
2019-03-06T21:56:26.181Z,5.47
2019-03-06T21:58:56.830Z,6.80
2019-03-06T22:01:27.638Z,7.13
2019-03-06T22:03:57.990Z,6.77
2019-03-06T22:06:28.454Z,8.47
2019-03-06T22:08:58.829Z,8.97
2019-03-06T22:11:29.177Z,7.40
2019-03-06T22:13:59.558Z,7.03
2019-03-06T22:16:29.905Z,5.97
2019-03-06T22:19:00.983Z,8.43
2019-03-06T22:21:31.550Z,7.47
2019-03-06T22:24:02.270Z,8.60
2019-03-06T22:26:32.634Z,8.10
2019-03-06T22:29:03.025Z,7.27
2019-03-06T22:31:33.390Z,6.17
2019-03-06T22:34:03.778Z,7.87
2019-03-06T22:36:34.157Z,6.57
2019-03-06T22:39:05.986Z,7.70
2019-03-06T22:41:36.388Z,6.67
2019-03-06T22:44:06.788Z,6.67
2019-03-06T22:46:37.177Z,8.73
2019-03-06T22:49:07.528Z,7.30
2019-03-06T22:51:37.905Z,7.13
2019-03-06T22:54:08.241Z,9.13
2019-03-06T22:56:38.615Z,8.87
2019-03-06T22:59:08.977Z,6.90
2019-03-06T23:01:41.069Z,7.30
2019-03-06T23:04:11.521Z,8.63
2019-03-06T23:06:41.921Z,8.87
2019-03-06T23:09:13.829Z,10.50
2019-03-06T23:11:44.338Z,6.53
2019-03-06T23:14:14.720Z,10.00
2019-03-06T23:16:45.064Z,7.13
2019-03-06T23:19:15.417Z,7.30
2019-03-06T23:21:45.768Z,6.67
2019-03-06T23:24:16.145Z,6.43
2019-03-06T23:26:47.558Z,10.30
2019-03-06T23:29:18.290Z,6.37
2019-03-06T23:31:50.426Z,6.17
2019-03-06T23:34:20.801Z,7.90
2019-03-06T23:36:51.140Z,7.47
2019-03-06T23:39:21.534Z,7.57
2019-03-06T23:41:51.893Z,9.27
2019-03-06T23:44:22.647Z,7.53
2019-03-06T23:46:52.978Z,7.43
2019-03-06T23:49:23.795Z,7.83
2019-03-06T23:52:01.944Z,9.13
2019-03-06T23:54:32.654Z,6.63
2019-03-06T23:57:03.023Z,6.90
2019-03-06T23:59:33.425Z,7.77
